createdAt,value
2018-02-27T00:00:17.100Z,56.74
2018-02-27T00:01:22.602Z,57.03
2018-02-27T00:02:28.104Z,57.21
2018-02-27T00:03:33.603Z,57.03
2018-02-27T00:04:39.119Z,57.12
2018-02-27T00:05:44.604Z,57.21
2018-02-27T00:06:50.271Z,56.93
2018-02-27T00:07:55.693Z,57.40
2018-02-27T00:09:01.113Z,57.03
2018-02-27T00:10:06.642Z,57.21
2018-02-27T00:11:12.135Z,57.31
2018-02-27T00:12:17.660Z,57.97
2018-02-27T00:13:23.115Z,57.28
2018-02-27T00:14:28.618Z,57.97
2018-02-27T00:15:34.119Z,57.97
2018-02-27T00:16:39.620Z,57.87
2018-02-27T00:17:45.115Z,57.78
2018-02-27T00:18:50.615Z,57.21
2018-02-27T00:19:56.134Z,57.12
2018-02-27T00:21:01.626Z,57.97
2018-02-27T00:22:07.208Z,57.97
2018-02-27T00:23:12.623Z,57.59
2018-02-27T00:24:18.120Z,56.90
2018-02-27T00:25:23.621Z,57.21
2018-02-27T00:26:29.123Z,57.12
2018-02-27T00:27:34.624Z,57.28
2018-02-27T00:28:40.140Z,57.28
2018-02-27T00:29:45.622Z,57.12
2018-02-27T00:30:51.170Z,57.09
2018-02-27T00:31:56.646Z,57.18
2018-02-27T00:33:02.127Z,56.90
2018-02-27T00:34:07.634Z,57.09
2018-02-27T00:35:13.124Z,57.37
2018-02-27T00:36:18.623Z,57.09
2018-02-27T00:37:24.153Z,56.81
2018-02-27T00:38:29.633Z,56.90
2018-02-27T00:39:35.130Z,56.99
2018-02-27T00:40:40.641Z,56.90
2018-02-27T00:41:46.138Z,56.90
2018-02-27T00:42:51.634Z,56.99
2018-02-27T00:43:57.197Z,56.81
2018-02-27T00:45:02.834Z,56.90
2018-02-27T00:46:08.216Z,56.90
2018-02-27T00:47:13.648Z,57.09
2018-02-27T00:48:19.140Z,57.18
2018-02-27T00:49:24.686Z,56.90
2018-02-27T00:50:30.138Z,56.81
2018-02-27T00:51:35.848Z,56.71
2018-02-27T00:52:41.141Z,56.81
2018-02-27T00:53:46.678Z,57.18
2018-02-27T00:54:52.307Z,56.52
2018-02-27T00:55:57.648Z,57.18
2018-02-27T00:57:03.331Z,57.18
2018-02-27T00:58:08.786Z,56.71
2018-02-27T00:59:14.278Z,57.28
2018-02-27T01:00:19.816Z,56.81
2018-02-27T01:01:25.156Z,56.90
2018-02-27T01:02:30.667Z,57.09
2018-02-27T01:03:36.150Z,57.09
2018-02-27T01:04:41.647Z,57.09
2018-02-27T01:05:47.165Z,57.09
2018-02-27T01:06:52.653Z,56.99
2018-02-27T01:07:58.152Z,56.99
2018-02-27T01:09:03.645Z,56.99
2018-02-27T01:10:09.232Z,57.09
2018-02-27T01:11:14.648Z,56.99
2018-02-27T01:12:20.229Z,57.46
2018-02-27T01:13:25.689Z,57.28
2018-02-27T01:14:31.155Z,57.28
2018-02-27T01:15:36.656Z,57.84
2018-02-27T01:16:42.240Z,57.75
2018-02-27T01:17:47.665Z,57.65
2018-02-27T01:18:53.160Z,57.75
2018-02-27T01:19:58.956Z,57.75
2018-02-27T01:21:04.160Z,58.03
2018-02-27T01:22:09.818Z,57.75
2018-02-27T01:23:15.155Z,57.84
2018-02-27T01:24:20.673Z,57.75
2018-02-27T01:25:26.158Z,58.03
2018-02-27T01:26:31.657Z,58.03
2018-02-27T01:27:37.178Z,57.94
2018-02-27T01:28:42.668Z,57.94
2018-02-27T01:29:48.699Z,57.94
2018-02-27T01:30:53.665Z,58.03
2018-02-27T01:31:59.165Z,58.12
2018-02-27T01:33:04.665Z,58.41
2018-02-27T01:34:10.165Z,58.41
2018-02-27T01:35:15.662Z,58.31
2018-02-27T01:36:21.327Z,58.22
2018-02-27T01:37:26.665Z,58.12
2018-02-27T01:38:32.164Z,58.31
2018-02-27T01:39:37.670Z,58.41
2018-02-27T01:40:43.208Z,58.41
2018-02-27T01:41:48.665Z,58.50
2018-02-27T01:42:54.174Z,58.41
2018-02-27T01:43:59.674Z,58.41
2018-02-27T01:45:05.167Z,58.31
2018-02-27T01:46:10.675Z,58.41
2018-02-27T01:47:16.166Z,58.41
2018-02-27T01:48:21.674Z,58.60
2018-02-27T01:49:27.182Z,58.60
2018-02-27T01:50:32.718Z,58.31
2018-02-27T01:51:38.178Z,58.31
2018-02-27T01:52:43.668Z,58.41
2018-02-27T01:53:49.224Z,58.41
2018-02-27T01:54:54.676Z,58.88
2018-02-27T01:56:00.202Z,58.88
2018-02-27T01:57:05.674Z,59.26
2018-02-27T01:58:11.168Z,58.88
2018-02-27T01:59:16.683Z,59.17
2018-02-27T02:00:22.174Z,58.79
2018-02-27T02:01:27.677Z,59.07
2018-02-27T02:02:33.182Z,58.79
2018-02-27T02:03:38.677Z,58.60
2018-02-27T02:04:44.172Z,58.69
2018-02-27T02:05:49.677Z,59.35
2018-02-27T02:06:55.186Z,59.07
2018-02-27T02:08:00.682Z,59.07
2018-02-27T02:09:06.175Z,59.26
2018-02-27T02:10:11.695Z,59.26
2018-02-27T02:11:17.183Z,59.26
2018-02-27T02:12:22.675Z,59.17
2018-02-27T02:13:28.184Z,59.07
2018-02-27T02:14:33.678Z,59.17
2018-02-27T02:15:39.214Z,59.26
2018-02-27T02:16:44.675Z,58.98
2018-02-27T02:17:50.180Z,59.45
2018-02-27T02:18:55.683Z,59.35
2018-02-27T02:20:01.180Z,59.26
2018-02-27T02:21:06.761Z,59.64
2018-02-27T02:22:12.214Z,59.45
2018-02-27T02:23:17.674Z,59.54
2018-02-27T02:24:23.177Z,59.73
2018-02-27T02:25:28.673Z,59.73
2018-02-27T02:26:34.179Z,59.73
2018-02-27T02:27:39.684Z,59.73
2018-02-27T02:28:45.174Z,60.11
2018-02-27T02:29:50.813Z,59.83
2018-02-27T02:30:56.244Z,59.45
2018-02-27T02:32:01.689Z,59.35
2018-02-27T02:33:07.229Z,59.73
2018-02-27T02:34:12.691Z,59.92
2018-02-27T02:35:18.197Z,59.83
2018-02-27T02:36:23.685Z,60.11
2018-02-27T02:37:29.183Z,60.11
2018-02-27T02:38:34.692Z,59.92
2018-02-27T02:39:40.186Z,59.64
2018-02-27T02:40:45.743Z,60.11
2018-02-27T02:41:51.184Z,59.83
2018-02-27T02:42:56.682Z,59.83
2018-02-27T02:44:02.196Z,60.02
2018-02-27T02:45:07.684Z,60.11
2018-02-27T02:46:13.183Z,60.21
2018-02-27T02:47:18.696Z,59.64
2018-02-27T02:48:24.192Z,60.30
2018-02-27T02:49:29.740Z,60.58
2018-02-27T02:50:35.186Z,60.39
2018-02-27T02:51:40.687Z,60.30
2018-02-27T02:52:46.187Z,60.49
2018-02-27T02:53:51.738Z,60.39
2018-02-27T02:54:57.193Z,60.49
2018-02-27T02:56:02.686Z,60.49
2018-02-27T02:57:08.297Z,60.30
2018-02-27T02:58:13.696Z,60.49
2018-02-27T02:59:19.191Z,60.68
2018-02-27T03:00:24.688Z,60.30
2018-02-27T03:01:30.185Z,60.86
2018-02-27T03:02:35.686Z,60.68
2018-02-27T03:03:41.185Z,60.96
2018-02-27T03:04:46.693Z,60.86
2018-02-27T03:05:52.186Z,60.58
2018-02-27T03:06:57.692Z,60.58
2018-02-27T03:08:03.188Z,61.24
2018-02-27T03:09:08.688Z,60.86
2018-02-27T03:10:14.197Z,61.33
2018-02-27T03:11:19.698Z,61.52
2018-02-27T03:12:25.187Z,61.33
2018-02-27T03:13:30.694Z,61.15
2018-02-27T03:14:36.190Z,61.05
2018-02-27T03:15:41.704Z,61.52
2018-02-27T03:16:47.189Z,61.05
2018-02-27T03:17:52.696Z,61.24
2018-02-27T03:18:58.200Z,61.05
2018-02-27T03:20:03.692Z,61.33
2018-02-27T03:21:09.189Z,61.15
2018-02-27T03:22:14.699Z,61.24
2018-02-27T03:23:20.191Z,61.24
2018-02-27T03:24:25.696Z,61.24
2018-02-27T03:25:31.192Z,61.71
2018-02-27T03:26:36.697Z,61.80
2018-02-27T03:27:42.192Z,61.52
2018-02-27T03:28:47.690Z,61.61
2018-02-27T03:29:53.197Z,61.43
2018-02-27T03:30:58.706Z,61.43
2018-02-27T03:32:04.193Z,61.24
2018-02-27T03:33:09.696Z,61.43
2018-02-27T03:34:15.200Z,61.52
2018-02-27T03:35:20.693Z,61.71
2018-02-27T03:36:26.199Z,61.43
2018-02-27T03:37:31.698Z,61.52
2018-02-27T03:38:37.195Z,61.52
2018-02-27T03:39:42.724Z,61.52
2018-02-27T03:40:48.196Z,61.61
2018-02-27T03:41:53.694Z,61.61
2018-02-27T03:42:59.237Z,61.52
2018-02-27T03:44:04.706Z,61.99
2018-02-27T03:45:10.219Z,61.52
2018-02-27T03:46:15.700Z,61.80
2018-02-27T03:47:21.194Z,61.90
2018-02-27T03:48:26.697Z,61.71
2018-02-27T03:49:32.215Z,62.06
2018-02-27T03:50:37.699Z,62.09
2018-02-27T03:51:43.194Z,62.28
2018-02-27T03:52:48.695Z,62.15
2018-02-27T03:53:54.194Z,61.99
2018-02-27T03:54:59.701Z,61.96
2018-02-27T03:56:05.201Z,61.80
2018-02-27T03:57:10.710Z,61.71
2018-02-27T03:58:16.198Z,61.90
2018-02-27T03:59:21.712Z,62.18
2018-02-27T04:00:27.194Z,61.80
2018-02-27T04:01:32.694Z,61.68
2018-02-27T04:02:38.201Z,62.37
2018-02-27T04:03:43.702Z,62.37
2018-02-27T04:04:49.202Z,62.09
2018-02-27T04:05:54.698Z,62.09
2018-02-27T04:07:00.198Z,61.80
2018-02-27T04:08:05.697Z,61.68
2018-02-27T04:09:11.206Z,61.61
2018-02-27T04:10:16.698Z,61.68
2018-02-27T04:11:22.202Z,62.15
2018-02-27T04:12:27.696Z,61.99
2018-02-27T04:13:33.203Z,62.18
2018-02-27T04:14:38.696Z,62.06
2018-02-27T04:15:44.196Z,62.18
2018-02-27T04:16:49.720Z,62.06
2018-02-27T04:17:55.196Z,62.15
2018-02-27T04:19:00.700Z,62.18
2018-02-27T04:20:06.196Z,62.06
2018-02-27T04:21:11.700Z,62.09
2018-02-27T04:22:17.201Z,62.06
2018-02-27T04:23:22.700Z,62.15
2018-02-27T04:24:28.211Z,61.96
2018-02-27T04:25:33.701Z,62.43
2018-02-27T04:26:39.198Z,62.62
2018-02-27T04:27:44.702Z,62.62
2018-02-27T04:28:50.201Z,62.53
2018-02-27T04:29:55.702Z,62.43
2018-02-27T04:31:01.204Z,62.43
2018-02-27T04:32:06.695Z,62.43
2018-02-27T04:33:12.199Z,62.34
2018-02-27T04:34:17.697Z,62.25
2018-02-27T04:35:23.200Z,62.34
2018-02-27T04:36:28.702Z,62.15
2018-02-27T04:37:34.200Z,62.43
2018-02-27T04:38:39.709Z,62.43
2018-02-27T04:39:45.202Z,62.25
2018-02-27T04:40:50.699Z,62.43
2018-02-27T04:41:56.202Z,61.68
2018-02-27T04:43:01.700Z,61.96
2018-02-27T04:44:07.198Z,62.06
2018-02-27T04:45:12.699Z,62.06
2018-02-27T04:46:18.195Z,62.25
2018-02-27T04:47:23.702Z,62.06
2018-02-27T04:48:29.224Z,62.15
2018-02-27T04:49:34.694Z,62.53
2018-02-27T04:50:40.197Z,62.34
2018-02-27T04:51:45.703Z,62.53
2018-02-27T04:52:51.197Z,62.53
2018-02-27T04:53:56.710Z,62.53
2018-02-27T04:55:02.207Z,62.06
2018-02-27T04:56:07.705Z,62.25
2018-02-27T04:57:13.206Z,62.25
2018-02-27T04:58:18.695Z,61.87
2018-02-27T04:59:24.196Z,61.96
2018-02-27T05:00:29.695Z,61.96
2018-02-27T05:01:35.196Z,61.96
2018-02-27T05:02:40.706Z,62.25
2018-02-27T05:03:46.236Z,62.25
2018-02-27T05:04:51.717Z,62.34
2018-02-27T05:05:57.193Z,62.06
2018-02-27T05:07:02.696Z,62.25
2018-02-27T05:08:08.195Z,62.06
2018-02-27T05:09:13.694Z,62.34
2018-02-27T05:10:19.194Z,62.25
2018-02-27T05:11:24.698Z,62.34
2018-02-27T05:12:30.197Z,62.06
2018-02-27T05:13:35.695Z,62.15
2018-02-27T05:14:41.197Z,62.15
2018-02-27T05:15:46.695Z,62.34
2018-02-27T05:16:52.202Z,62.25
2018-02-27T05:17:57.694Z,62.34
2018-02-27T05:19:03.199Z,62.43
2018-02-27T05:20:08.715Z,62.53
2018-02-27T05:21:14.380Z,63.10
2018-02-27T05:22:19.693Z,62.25
2018-02-27T05:23:25.189Z,62.62
2018-02-27T05:24:30.711Z,62.43
2018-02-27T05:25:36.191Z,62.81
2018-02-27T05:26:41.694Z,62.15
2018-02-27T05:27:47.195Z,62.91
2018-02-27T05:28:52.766Z,63.00
2018-02-27T05:29:58.192Z,62.72
2018-02-27T05:31:03.693Z,62.91
2018-02-27T05:32:09.191Z,62.91
2018-02-27T05:33:14.687Z,63.10
2018-02-27T05:34:20.194Z,63.29
2018-02-27T05:35:25.699Z,63.47
2018-02-27T05:36:31.195Z,63.57
2018-02-27T05:37:36.693Z,63.00
2018-02-27T05:38:42.198Z,63.19
2018-02-27T05:39:47.689Z,63.85
2018-02-27T05:40:53.216Z,63.66
2018-02-27T05:41:58.693Z,63.66
2018-02-27T05:43:04.193Z,63.57
2018-02-27T05:44:09.686Z,63.95
2018-02-27T05:45:15.187Z,64.14
2018-02-27T05:46:20.681Z,63.95
2018-02-27T05:47:26.185Z,63.95
2018-02-27T05:48:31.688Z,64.42
2018-02-27T05:49:37.187Z,64.79
2018-02-27T05:50:42.682Z,64.61
2018-02-27T05:51:48.182Z,64.42
2018-02-27T05:52:53.683Z,64.42
2018-02-27T05:53:59.191Z,64.61
2018-02-27T05:55:04.683Z,64.89
2018-02-27T05:56:10.188Z,64.70
2018-02-27T05:57:15.696Z,64.89
2018-02-27T05:58:21.186Z,64.61
2018-02-27T05:59:26.688Z,64.51
2018-02-27T06:00:32.181Z,64.70
2018-02-27T06:01:37.686Z,64.70
2018-02-27T06:02:43.186Z,64.51
2018-02-27T06:03:48.682Z,64.79
2018-02-27T06:04:54.223Z,64.70
2018-02-27T06:05:59.695Z,65.26
2018-02-27T06:07:05.179Z,65.36
2018-02-27T06:08:10.680Z,64.98
2018-02-27T06:09:16.179Z,65.17
2018-02-27T06:10:21.684Z,64.89
2018-02-27T06:11:27.184Z,65.26
2018-02-27T06:12:32.679Z,65.17
2018-02-27T06:13:38.172Z,65.08
2018-02-27T06:14:43.672Z,65.36
2018-02-27T06:15:49.187Z,65.26
2018-02-27T06:16:54.675Z,65.17
2018-02-27T06:18:00.176Z,65.08
2018-02-27T06:19:05.675Z,65.17
2018-02-27T06:20:11.185Z,65.45
2018-02-27T06:21:16.677Z,65.55
2018-02-27T06:22:22.172Z,65.17
2018-02-27T06:23:27.674Z,65.55
2018-02-27T06:24:33.174Z,65.64
2018-02-27T06:25:38.675Z,65.64
2018-02-27T06:26:44.171Z,65.64
2018-02-27T06:27:49.682Z,65.55
2018-02-27T06:28:55.167Z,64.89
2018-02-27T06:30:00.668Z,65.36
2018-02-27T06:31:06.173Z,65.36
2018-02-27T06:32:11.675Z,65.45
2018-02-27T06:33:17.170Z,65.26
2018-02-27T06:34:22.667Z,65.36
2018-02-27T06:35:28.166Z,64.89
2018-02-27T06:36:33.670Z,65.08
2018-02-27T06:37:39.175Z,64.98
2018-02-27T06:38:44.695Z,65.08
2018-02-27T06:39:50.167Z,64.89
2018-02-27T06:40:55.671Z,65.55
2018-02-27T06:42:01.163Z,65.55
2018-02-27T06:43:06.667Z,65.64
2018-02-27T06:44:12.220Z,65.36
2018-02-27T06:45:17.677Z,65.36
2018-02-27T06:46:23.173Z,65.17
2018-02-27T06:47:28.665Z,65.17
2018-02-27T06:48:34.164Z,65.17
2018-02-27T06:49:39.665Z,64.89
2018-02-27T06:50:45.169Z,65.26
2018-02-27T06:51:50.665Z,65.36
2018-02-27T06:52:56.164Z,65.26
2018-02-27T06:54:01.663Z,64.98
2018-02-27T06:55:07.165Z,64.98
2018-02-27T06:56:12.665Z,65.26
2018-02-27T06:57:18.167Z,64.79
2018-02-27T06:58:23.660Z,64.89
2018-02-27T06:59:29.175Z,65.36
2018-02-27T07:00:34.664Z,65.55
2018-02-27T07:01:40.167Z,65.55
2018-02-27T07:02:45.660Z,65.26
2018-02-27T07:03:51.165Z,64.89
2018-02-27T07:04:56.662Z,64.98
2018-02-27T07:06:02.167Z,64.70
2018-02-27T07:07:07.667Z,64.61
2018-02-27T07:08:13.180Z,64.79
2018-02-27T07:09:18.665Z,64.61
2018-02-27T07:10:24.158Z,64.70
2018-02-27T07:11:29.694Z,64.70
2018-02-27T07:12:35.161Z,64.61
2018-02-27T07:13:40.662Z,64.70
2018-02-27T07:14:46.166Z,64.61
2018-02-27T07:15:51.665Z,64.42
2018-02-27T07:16:57.161Z,64.70
2018-02-27T07:18:02.659Z,64.79
2018-02-27T07:19:08.164Z,64.79
2018-02-27T07:20:13.661Z,64.79
2018-02-27T07:21:19.161Z,65.08
2018-02-27T07:22:24.667Z,64.70
2018-02-27T07:23:30.162Z,64.61
2018-02-27T07:24:35.657Z,64.79
2018-02-27T07:25:41.161Z,64.79
2018-02-27T07:26:46.657Z,64.70
2018-02-27T07:27:52.171Z,64.70
2018-02-27T07:28:57.669Z,64.89
2018-02-27T07:30:03.158Z,64.89
2018-02-27T07:31:08.676Z,65.26
2018-02-27T07:32:14.166Z,65.36
2018-02-27T07:33:19.669Z,64.79
2018-02-27T07:34:25.168Z,65.26
2018-02-27T07:35:30.661Z,64.89
2018-02-27T07:36:36.158Z,64.70
2018-02-27T07:37:41.659Z,64.61
2018-02-27T07:38:47.171Z,64.61
2018-02-27T07:39:52.661Z,64.79
2018-02-27T07:40:58.164Z,64.70
2018-02-27T07:42:03.655Z,64.79
2018-02-27T07:43:09.154Z,64.61
2018-02-27T07:44:14.659Z,64.61
2018-02-27T07:45:20.154Z,64.89
2018-02-27T07:46:25.656Z,64.79
2018-02-27T07:47:31.154Z,64.61
2018-02-27T07:48:36.661Z,64.61
2018-02-27T07:49:42.165Z,64.61
2018-02-27T07:50:47.664Z,64.42
2018-02-27T07:51:53.152Z,63.95
2018-02-27T07:52:58.946Z,64.32
2018-02-27T07:54:04.180Z,64.23
2018-02-27T07:55:09.771Z,63.95
2018-02-27T07:56:15.214Z,64.04
2018-02-27T07:57:20.665Z,64.14
2018-02-27T07:58:26.152Z,63.76
2018-02-27T07:59:31.658Z,63.47
2018-02-27T08:00:37.150Z,63.85
2018-02-27T08:01:42.656Z,63.76
2018-02-27T08:02:48.156Z,63.66
2018-02-27T08:03:53.651Z,63.85
2018-02-27T08:04:59.177Z,63.29
2018-02-27T08:06:04.661Z,63.38
2018-02-27T08:07:10.149Z,62.81
2018-02-27T08:08:15.656Z,63.10
2018-02-27T08:09:21.149Z,63.03
2018-02-27T08:10:26.654Z,62.25
2018-02-27T08:11:32.153Z,62.09
2018-02-27T08:12:37.647Z,62.15
2018-02-27T08:13:43.146Z,62.37
2018-02-27T08:14:48.650Z,62.66
2018-02-27T08:15:54.154Z,62.47
2018-02-27T08:16:59.647Z,62.37
2018-02-27T08:18:05.149Z,62.37
2018-02-27T08:19:10.655Z,61.61
2018-02-27T08:20:16.145Z,61.43
2018-02-27T08:21:21.681Z,61.33
2018-02-27T08:22:27.153Z,61.24
2018-02-27T08:23:32.657Z,61.15
2018-02-27T08:24:38.143Z,61.15
2018-02-27T08:25:43.650Z,60.77
2018-02-27T08:26:49.204Z,60.86
2018-02-27T08:27:54.650Z,60.86
2018-02-27T08:29:00.154Z,60.39
2018-02-27T08:30:05.662Z,60.68
2018-02-27T08:31:11.144Z,60.39
2018-02-27T08:32:16.651Z,60.21
2018-02-27T08:33:22.152Z,59.35
2018-02-27T08:34:27.643Z,58.98
2018-02-27T08:35:33.145Z,57.94
2018-02-27T08:36:38.646Z,57.65
2018-02-27T08:37:44.150Z,57.84
2018-02-27T08:38:49.649Z,57.94
2018-02-27T08:39:55.157Z,56.90
2018-02-27T08:41:00.654Z,56.99
2018-02-27T08:42:06.164Z,57.28
2018-02-27T08:43:11.647Z,57.28
2018-02-27T08:44:17.180Z,57.18
2018-02-27T08:45:22.645Z,56.81
2018-02-27T08:46:28.149Z,55.77
2018-02-27T08:47:33.646Z,55.67
2018-02-27T08:48:39.152Z,55.39
2018-02-27T08:49:44.649Z,55.11
2018-02-27T08:50:50.151Z,55.01
2018-02-27T08:51:55.650Z,54.82
2018-02-27T08:53:01.152Z,54.35
2018-02-27T08:54:06.648Z,53.97
2018-02-27T08:55:12.156Z,54.07
2018-02-27T08:56:17.655Z,54.07
2018-02-27T08:57:23.154Z,54.16
2018-02-27T08:58:28.652Z,54.92
2018-02-27T08:59:34.151Z,53.97
2018-02-27T09:00:39.654Z,53.97
2018-02-27T09:01:45.151Z,53.59
2018-02-27T09:02:50.651Z,54.07
2018-02-27T09:03:56.148Z,53.78
2018-02-27T09:05:01.654Z,53.59
2018-02-27T09:06:07.156Z,53.69
2018-02-27T09:07:12.655Z,53.88
2018-02-27T09:08:18.153Z,54.07
2018-02-27T09:09:23.653Z,53.69
2018-02-27T09:10:29.153Z,53.81
2018-02-27T09:11:34.664Z,54.19
2018-02-27T09:12:40.159Z,53.63
2018-02-27T09:13:45.658Z,52.59
2018-02-27T09:14:51.161Z,52.40
2018-02-27T09:15:56.660Z,52.78
2018-02-27T09:17:02.156Z,52.59
2018-02-27T09:18:07.657Z,52.40
2018-02-27T09:19:13.244Z,52.30
2018-02-27T09:20:18.668Z,51.64
2018-02-27T09:21:24.159Z,51.73
2018-02-27T09:22:29.668Z,51.26
2018-02-27T09:23:35.178Z,51.45
2018-02-27T09:24:40.666Z,51.36
2018-02-27T09:25:46.164Z,51.54
2018-02-27T09:26:51.672Z,50.98
2018-02-27T09:27:57.175Z,51.26
2018-02-27T09:29:02.667Z,51.07
2018-02-27T09:30:08.161Z,50.98
2018-02-27T09:31:13.673Z,51.26
2018-02-27T09:32:19.165Z,51.07
2018-02-27T09:33:24.676Z,51.07
2018-02-27T09:34:30.170Z,50.51
2018-02-27T09:35:35.798Z,50.04
2018-02-27T09:36:41.171Z,49.76
2018-02-27T09:37:46.667Z,49.76
2018-02-27T09:38:52.191Z,48.90
2018-02-27T09:39:57.688Z,49.47
2018-02-27T09:41:03.177Z,49.76
2018-02-27T09:42:08.670Z,49.47
2018-02-27T09:43:14.173Z,49.28
2018-02-27T09:44:19.680Z,48.90
2018-02-27T09:45:25.175Z,49.47
2018-02-27T09:46:30.684Z,49.09
2018-02-27T09:47:36.178Z,49.00
2018-02-27T09:48:41.681Z,47.67
2018-02-27T09:49:47.203Z,48.05
2018-02-27T09:50:52.690Z,46.45
2018-02-27T09:51:58.200Z,46.73
2018-02-27T09:53:03.688Z,47.02
2018-02-27T09:54:09.193Z,46.92
2018-02-27T09:55:14.687Z,47.67
2018-02-27T09:56:20.223Z,47.20
2018-02-27T09:57:25.695Z,47.86
2018-02-27T09:58:31.193Z,47.86
2018-02-27T09:59:36.708Z,47.67
2018-02-27T10:00:42.200Z,48.05
2018-02-27T10:01:47.703Z,48.15
2018-02-27T10:02:53.732Z,48.18
2018-02-27T10:03:58.710Z,48.18
2018-02-27T10:05:04.201Z,47.67
2018-02-27T10:06:09.706Z,47.89
2018-02-27T10:07:15.215Z,47.23
2018-02-27T10:08:20.706Z,47.61
2018-02-27T10:09:26.214Z,48.36
2018-02-27T10:10:31.704Z,47.13
2018-02-27T10:11:37.213Z,46.85
2018-02-27T10:12:42.724Z,45.62
2018-02-27T10:13:48.215Z,46.19
2018-02-27T10:14:53.725Z,46.19
2018-02-27T10:15:59.225Z,46.00
2018-02-27T10:17:04.719Z,46.00
2018-02-27T10:18:10.229Z,45.15
2018-02-27T10:19:15.723Z,45.15
2018-02-27T10:20:21.220Z,45.15
2018-02-27T10:21:26.725Z,45.34
2018-02-27T10:22:32.221Z,45.15
2018-02-27T10:23:37.729Z,45.90
2018-02-27T10:24:43.221Z,45.62
2018-02-27T10:25:48.732Z,45.62
2018-02-27T10:26:54.243Z,45.15
2018-02-27T10:27:59.744Z,45.62
2018-02-27T10:29:05.239Z,46.00
2018-02-27T10:30:10.735Z,45.81
2018-02-27T10:31:16.241Z,45.62
2018-02-27T10:32:21.739Z,45.72
2018-02-27T10:33:27.264Z,46.00
2018-02-27T10:34:32.747Z,45.34
2018-02-27T10:35:38.253Z,45.25
2018-02-27T10:36:44.109Z,45.34
2018-02-27T10:37:49.283Z,45.15
2018-02-27T10:38:54.766Z,45.53
2018-02-27T10:40:00.250Z,46.00
2018-02-27T10:41:05.767Z,45.72
2018-02-27T10:42:11.256Z,46.28
2018-02-27T10:43:16.750Z,46.37
2018-02-27T10:44:22.264Z,45.90
2018-02-27T10:45:27.765Z,45.90
2018-02-27T10:46:33.263Z,45.06
2018-02-27T10:47:38.822Z,45.72
2018-02-27T10:48:44.260Z,45.53
2018-02-27T10:49:49.821Z,45.06
2018-02-27T10:50:55.281Z,45.06
2018-02-27T10:52:00.776Z,44.96
2018-02-27T10:53:06.280Z,45.06
2018-02-27T10:54:11.774Z,44.87
2018-02-27T10:55:17.276Z,45.08
2018-02-27T10:56:22.811Z,45.17
2018-02-27T10:57:28.276Z,44.89
2018-02-27T10:58:33.789Z,44.51
2018-02-27T10:59:39.277Z,44.32
2018-02-27T11:00:44.799Z,44.42
2018-02-27T11:01:50.298Z,44.04
2018-02-27T11:02:55.786Z,44.04
2018-02-27T11:04:01.288Z,43.76
2018-02-27T11:05:06.794Z,43.66
2018-02-27T11:06:12.295Z,43.38
2018-02-27T11:07:17.793Z,43.09
2018-02-27T11:08:23.303Z,42.52
2018-02-27T11:09:28.806Z,42.15
2018-02-27T11:10:34.305Z,41.77
2018-02-27T11:11:39.801Z,41.67
2018-02-27T11:12:45.305Z,41.77
2018-02-27T11:13:50.806Z,41.86
2018-02-27T11:14:56.314Z,41.67
2018-02-27T11:16:02.695Z,41.96
2018-02-27T11:17:07.320Z,41.86
2018-02-27T11:18:12.820Z,41.86
2018-02-27T11:19:18.323Z,41.58
2018-02-27T11:20:23.828Z,41.96
2018-02-27T11:21:29.330Z,41.77
2018-02-27T11:22:34.830Z,41.96
2018-02-27T11:23:40.428Z,41.67
2018-02-27T11:24:45.828Z,41.89
2018-02-27T11:25:51.343Z,40.94
2018-02-27T11:26:56.843Z,40.75
2018-02-27T11:28:02.363Z,40.75
2018-02-27T11:29:07.845Z,41.30
2018-02-27T11:30:13.351Z,40.66
2018-02-27T11:31:18.857Z,40.75
2018-02-27T11:32:24.571Z,40.56
2018-02-27T11:33:29.863Z,40.28
2018-02-27T11:34:35.361Z,40.75
2018-02-27T11:35:40.865Z,40.75
2018-02-27T11:36:46.374Z,41.03
2018-02-27T11:37:52.058Z,40.84
2018-02-27T11:38:57.393Z,40.84
2018-02-27T11:40:02.878Z,40.94
2018-02-27T11:41:08.518Z,40.47
2018-02-27T11:42:13.882Z,39.90
2018-02-27T11:43:19.381Z,39.81
2018-02-27T11:44:24.882Z,39.62
2018-02-27T11:45:30.393Z,40.09
2018-02-27T11:46:35.995Z,40.00
2018-02-27T11:47:41.395Z,39.90
2018-02-27T11:48:46.894Z,39.90
2018-02-27T11:49:52.396Z,39.88
2018-02-27T11:50:57.898Z,40.73
2018-02-27T11:52:03.419Z,40.92
2018-02-27T11:53:08.921Z,40.64
2018-02-27T11:54:14.543Z,40.83
2018-02-27T11:55:19.932Z,41.03
2018-02-27T11:56:25.418Z,40.66
2018-02-27T11:57:30.923Z,40.66
2018-02-27T11:58:36.422Z,40.84
2018-02-27T11:59:41.927Z,40.75
2018-02-27T12:00:47.432Z,40.19
2018-02-27T12:01:52.940Z,40.28
2018-02-27T12:02:58.458Z,40.84
2018-02-27T12:04:03.935Z,40.84
2018-02-27T12:05:09.450Z,40.56
2018-02-27T12:06:14.954Z,40.75
2018-02-27T12:07:20.448Z,39.90
2018-02-27T12:08:25.947Z,39.90
2018-02-27T12:09:31.474Z,39.81
2018-02-27T12:10:36.961Z,40.19
2018-02-27T12:11:42.466Z,40.28
2018-02-27T12:12:47.961Z,40.09
2018-02-27T12:13:53.465Z,39.81
2018-02-27T12:14:59.061Z,39.33
2018-02-27T12:16:04.472Z,39.81
2018-02-27T12:17:09.978Z,40.20
2018-02-27T12:18:15.477Z,40.11
2018-02-27T12:19:20.989Z,40.20
2018-02-27T12:20:26.491Z,39.54
2018-02-27T12:21:31.990Z,39.36
2018-02-27T12:22:37.523Z,38.79
2018-02-27T12:23:42.997Z,38.41
2018-02-27T12:24:48.526Z,38.71
2018-02-27T12:25:54.006Z,38.05
2018-02-27T12:26:59.519Z,37.67
2018-02-27T12:28:05.013Z,37.38
2018-02-27T12:29:10.521Z,37.48
2018-02-27T12:30:16.027Z,37.57
2018-02-27T12:31:21.534Z,37.10
2018-02-27T12:32:27.032Z,37.01
2018-02-27T12:33:32.564Z,36.52
2018-02-27T12:34:38.039Z,37.84
2018-02-27T12:35:43.553Z,38.31
2018-02-27T12:36:49.065Z,38.71
2018-02-27T12:37:54.552Z,38.52
2018-02-27T12:39:00.065Z,37.90
2018-02-27T12:40:05.565Z,36.40
2018-02-27T12:41:11.075Z,34.92
2018-02-27T12:42:16.569Z,32.57
2018-02-27T12:43:22.077Z,30.40
2018-02-27T12:44:27.599Z,29.08
2018-02-27T12:45:33.093Z,28.34
2018-02-27T12:46:38.603Z,25.87
2018-02-27T12:47:44.105Z,24.62
2018-02-27T12:48:49.623Z,24.84
2018-02-27T12:49:55.187Z,23.63
2018-02-27T12:51:00.623Z,22.98
2018-02-27T12:52:06.166Z,21.48
2018-02-27T12:53:11.646Z,19.87
2018-02-27T12:54:17.148Z,18.17
2018-02-27T12:55:22.659Z,16.37
2018-02-27T12:56:28.170Z,15.12
2018-02-27T12:57:33.672Z,15.13
2018-02-27T12:58:39.182Z,14.17
2018-02-27T12:59:44.693Z,14.34
2018-02-27T13:00:50.251Z,15.28
2018-02-27T13:01:55.726Z,16.50
2018-02-27T13:03:01.331Z,17.91
2018-02-27T13:04:06.753Z,19.03
2018-02-27T13:05:12.259Z,20.76
2018-02-27T13:06:17.764Z,20.69
2018-02-27T13:07:23.283Z,19.62
2018-02-27T13:08:28.812Z,19.53
2018-02-27T13:09:34.334Z,19.81
2018-02-27T13:10:39.815Z,21.12
2018-02-27T13:11:45.339Z,21.37
2018-02-27T13:12:50.843Z,23.73
2018-02-27T13:13:56.358Z,24.67
2018-02-27T13:15:01.866Z,25.71
2018-02-27T13:16:07.385Z,26.46
2018-02-27T13:17:12.890Z,27.31
2018-02-27T13:18:18.394Z,29.00
2018-02-27T13:19:23.905Z,30.22
2018-02-27T13:20:29.437Z,30.69
2018-02-27T13:21:34.922Z,31.26
2018-02-27T13:22:40.434Z,31.07
2018-02-27T13:23:45.939Z,30.98
2018-02-27T13:24:51.455Z,31.45
2018-02-27T13:25:57.132Z,31.74
2018-02-27T13:27:02.511Z,31.64
2018-02-27T13:28:07.974Z,32.01
2018-02-27T13:29:13.485Z,32.10
2018-02-27T13:30:19.000Z,32.67
2018-02-27T13:31:24.499Z,32.89
2018-02-27T13:32:30.027Z,31.56
2018-02-27T13:33:35.511Z,30.88
2018-02-27T13:34:41.023Z,31.36
2018-02-27T13:35:46.689Z,31.64
2018-02-27T13:36:52.036Z,31.82
2018-02-27T13:37:57.545Z,32.57
2018-02-27T13:39:03.072Z,33.31
2018-02-27T13:40:08.555Z,33.88
2018-02-27T13:41:14.063Z,34.64
2018-02-27T13:42:19.574Z,35.02
2018-02-27T13:43:25.128Z,35.32
2018-02-27T13:44:30.589Z,34.83
2018-02-27T13:45:36.082Z,34.75
2018-02-27T13:46:41.617Z,33.92
2018-02-27T13:47:47.104Z,32.89
2018-02-27T13:48:52.611Z,30.85
2018-02-27T13:49:58.105Z,27.84
2018-02-27T13:51:03.611Z,24.92
2018-02-27T13:52:09.206Z,23.60
2018-02-27T13:53:14.678Z,22.09
2018-02-27T13:54:20.136Z,21.06
2018-02-27T13:55:25.660Z,19.74
2018-02-27T13:56:31.150Z,18.32
2018-02-27T13:57:36.704Z,17.55
2018-02-27T13:58:42.201Z,17.74
2018-02-27T13:59:47.690Z,16.81
2018-02-27T14:00:53.191Z,16.14
2018-02-27T14:01:58.709Z,15.67
2018-02-27T14:03:04.234Z,14.94